Time;durP1;ratioP1;P1;durP2;ratioP2;P2;SDS_P1;SDS_P2;PMS_P1;PMS_P2;Temp;Humidity;BMP_temperature;BMP_pressure;BME280_temperature;BME280_humidity;BME280_pressure;Samples;Min_cycle;Max_cycle;Signal;HPM_P1;HPM_P2
2023/08/30 00:01:00;;;;;;;12.48;9.02;;;;;;;20.11;100.00;92218.94;5008412;28;20050;-79
2023/08/30 00:03:27;;;;;;;12.02;9.32;;;;;;;20.08;100.00;92208.34;5010103;28;20100;-79
2023/08/30 00:05:55;;;;;;;11.73;9.57;;;;;;;19.95;100.00;92223.66;5011417;28;20095;-79
2023/08/30 00:08:23;;;;;;;13.48;9.63;;;;;;;19.93;100.00;92233.63;5018325;28;20045;-79
2023/08/30 00:10:50;;;;;;;11.63;9.55;;;;;;;19.97;100.00;92234.63;5009495;28;20045;-79
2023/08/30 00:13:16;;;;;;;10.50;8.20;;;;;;;19.94;100.00;92224.75;5017201;28;20049;-78
2023/08/30 00:15:43;;;;;;;12.23;7.95;;;;;;;19.96;100.00;92230.47;5010945;28;20454;-79
2023/08/30 00:18:10;;;;;;;10.98;9.00;;;;;;;19.96;100.00;92214.84;5009487;28;20049;-78
2023/08/30 00:20:37;;;;;;;15.55;9.95;;;;;;;19.99;100.00;92216.06;5011367;28;20046;-77
2023/08/30 00:23:04;;;;;;;11.50;8.60;;;;;;;19.97;100.00;92207.78;5012660;28;20050;-77
2023/08/30 00:25:32;;;;;;;12.05;8.73;;;;;;;20.03;100.00;92211.81;5009502;28;20049;-76
2023/08/30 00:27:59;;;;;;;11.40;8.93;;;;;;;20.02;100.00;92202.44;5013119;28;20088;-77
2023/08/30 00:30:26;;;;;;;14.98;9.02;;;;;;;20.00;100.00;92200.13;5011821;28;20105;-77
2023/08/30 00:32:52;;;;;;;12.98;9.20;;;;;;;20.01;100.00;92204.28;5012706;28;20092;-77
2023/08/30 00:35:19;;;;;;;11.43;8.60;;;;;;;19.95;100.00;92220.31;5010829;28;20885;-76
2023/08/30 00:37:46;;;;;;;12.38;10.15;;;;;;;19.92;100.00;92218.28;5018760;28;20087;-77
2023/08/30 00:40:13;;;;;;;13.18;8.90;;;;;;;19.87;100.00;92214.69;5010636;28;20045;-77
2023/08/30 00:42:41;;;;;;;14.57;9.02;;;;;;;19.88;100.00;92225.91;5012566;28;20041;-77
2023/08/30 00:45:08;;;;;;;14.15;9.13;;;;;;;19.84;100.00;92240.56;5009210;28;20129;-76
2023/08/30 00:47:36;;;;;;;12.50;8.98;;;;;;;19.82;100.00;92232.28;5013058;28;20095;-76
2023/08/30 00:50:03;;;;;;;12.23;8.77;;;;;;;19.76;100.00;92232.38;5011252;28;20050;-77
2023/08/30 00:52:30;;;;;;;12.45;9.07;;;;;;;19.67;100.00;92235.97;5011614;28;20052;-77
2023/08/30 00:54:56;;;;;;;10.40;8.13;;;;;;;19.65;100.00;92233.66;5014062;28;20518;-76
2023/08/30 00:57:23;;;;;;;11.25;8.20;;;;;;;19.71;100.00;92237.69;5009849;28;20046;-77
2023/08/30 00:59:54;;;;;;;13.02;8.73;;;;;;;19.47;100.00;92197.00;5007915;28;20045;-76
2023/08/30 01:02:21;;;;;;;12.38;8.80;;;;;;;19.71;100.00;92229.88;5008514;28;20096;-76
2023/08/30 01:04:48;;;;;;;13.82;8.38;;;;;;;19.69;100.00;92229.41;5012248;28;20104;-76
2023/08/30 01:07:15;;;;;;;13.65;9.18;;;;;;;19.47;100.00;92209.22;5018783;28;20545;-76
2023/08/30 01:09:42;;;;;;;10.50;8.88;;;;;;;19.72;100.00;92249.66;5009899;28;20041;-76
2023/08/30 01:12:14;;;;;;;11.85;8.27;;;;;;;19.72;100.00;92244.44;5011550;28;20099;-76
2023/08/30 01:14:45;;;;;;;11.85;8.18;;;;;;;19.67;100.00;92241.94;5010447;28;20053;-77
2023/08/30 01:17:17;;;;;;;11.57;8.45;;;;;;;19.39;100.00;92218.50;5010016;28;20042;-77
2023/08/30 01:19:51;;;;;;;11.18;8.05;;;;;;;19.44;100.00;92234.03;5012894;28;20104;-77
2023/08/30 01:22:25;;;;;;;12.88;9.50;;;;;;;19.50;100.00;92251.09;5008741;28;20054;-80
2023/08/30 01:25:03;;;;;;;11.95;8.52;;;;;;;19.53;100.00;92257.56;5009956;28;20096;-80
2023/08/30 01:27:34;;;;;;;10.73;8.45;;;;;;;19.55;100.00;92259.88;5020076;28;20112;-80
2023/08/30 01:30:03;;;;;;;11.23;8.38;;;;;;;19.53;100.00;92257.56;5008271;28;20132;-79
2023/08/30 01:32:31;;;;;;;12.68;8.60;;;;;;;19.52;100.00;92245.59;5015366;28;20049;-79
2023/08/30 01:34:59;;;;;;;11.40;8.35;;;;;;;19.35;100.00;92220.16;5013828;28;20054;-79
2023/08/30 01:37:26;;;;;;;12.95;8.82;;;;;;;19.60;100.00;92250.16;5011932;28;20096;-76
2023/08/30 01:39:54;;;;;;;11.30;9.10;;;;;;;19.56;100.00;92245.78;5011232;28;20046;-76
2023/08/30 01:42:22;;;;;;;11.07;8.43;;;;;;;19.56;100.00;92243.19;5009517;28;20054;-76
2023/08/30 01:44:54;;;;;;;13.88;8.65;;;;;;;19.58;100.00;92249.66;5007785;28;20130;-77
2023/08/30 01:47:23;;;;;;;9.57;8.45;;;;;;;19.56;100.00;92240.59;5013692;28;20160;-78
2023/08/30 01:49:50;;;;;;;11.75;8.52;;;;;;;19.56;100.00;92243.19;5009267;28;20052;-79
2023/08/30 01:52:18;;;;;;;10.10;8.60;;;;;;;19.47;100.00;92230.84;5009085;28;20050;-78
2023/08/30 01:54:46;;;;;;;10.68;8.50;;;;;;;19.50;100.00;92242.53;5013106;28;20057;-78
2023/08/30 01:57:13;;;;;;;11.07;8.70;;;;;;;19.45;100.00;92240.00;5018720;28;20827;-77
2023/08/30 01:59:40;;;;;;;13.90;8.45;;;;;;;19.40;100.00;92235.69;5010603;28;20511;-77
2023/08/30 02:02:08;;;;;;;9.07;7.90;;;;;;;19.34;100.00;92229.00;5013804;28;20050;-78
2023/08/30 02:04:35;;;;;;;16.33;9.27;;;;;;;19.15;100.00;92218.66;5008450;28;20050;-77
2023/08/30 02:07:04;;;;;;;11.55;7.93;;;;;;;19.31;100.00;92251.16;5011805;28;20087;-77
2023/08/30 02:09:40;;;;;;;10.40;8.00;;;;;;;19.25;100.00;92248.97;5009067;28;20451;-77
2023/08/30 02:12:11;;;;;;;11.68;8.30;;;;;;;19.00;100.00;92217.84;5008737;28;20050;-77
2023/08/30 02:14:39;;;;;;;10.35;7.70;;;;;;;19.12;100.00;92240.81;5007300;28;20061;-77
2023/08/30 02:17:09;;;;;;;10.50;8.30;;;;;;;19.05;100.00;92243.03;5007218;28;20086;-78
2023/08/30 02:19:36;;;;;;;12.32;8.45;;;;;;;19.02;100.00;92239.13;5015628;28;20994;-78
2023/08/30 02:22:03;;;;;;;11.13;8.25;;;;;;;18.99;100.00;92238.94;5009541;28;20042;-78
2023/08/30 02:24:30;;;;;;;10.98;8.00;;;;;;;18.91;100.00;92222.94;5007283;28;20554;-77
2023/08/30 02:26:56;;;;;;;11.60;7.78;;;;;;;18.90;100.00;92228.41;5018824;28;20045;-78
2023/08/30 02:29:23;;;;;;;10.05;8.18;;;;;;;18.83;100.00;92229.56;5006291;28;20042;-78
2023/08/30 02:31:50;;;;;;;9.50;7.60;;;;;;;18.67;100.00;92210.06;5015264;28;20082;-78
2023/08/30 02:34:18;;;;;;;10.52;7.80;;;;;;;18.73;100.00;92218.53;5009934;28;20188;-77
2023/08/30 02:36:45;;;;;;;11.15;7.82;;;;;;;18.72;100.00;92222.19;5007195;28;20049;-77
2023/08/30 02:39:12;;;;;;;11.43;8.18;;;;;;;18.68;100.00;92219.41;5016534;28;20050;-76
2023/08/30 02:41:40;;;;;;;11.88;7.63;;;;;;;18.64;100.00;92214.00;5016126;28;20136;-77
2023/08/30 02:44:08;;;;;;;9.32;7.30;;;;;;;18.59;100.00;92216.66;5011327;28;20049;-78
2023/08/30 02:46:37;;;;;;;10.02;8.15;;;;;;;18.52;100.00;92211.81;5011223;28;20050;-78
2023/08/30 02:49:04;;;;;;;12.02;7.72;;;;;;;18.46;100.00;92209.59;5019625;28;20838;-79
2023/08/30 02:51:32;;;;;;;10.18;8.68;;;;;;;18.39;100.00;92215.94;5014758;28;20447;-79
2023/08/30 02:53:59;;;;;;;14.00;8.43;;;;;;;18.40;100.00;92229.69;5010400;28;20057;-76
2023/08/30 02:56:26;;;;;;;13.07;7.72;;;;;;;18.14;100.00;92204.84;5010813;28;20065;-76
2023/08/30 02:58:52;;;;;;;15.05;8.88;;;;;;;18.24;100.00;92231.75;5021141;28;20394;-76
2023/08/30 03:01:19;;;;;;;12.75;8.10;;;;;;;18.19;100.00;92234.41;5011455;28;20049;-76
2023/08/30 03:03:46;;;;;;;11.77;7.43;;;;;;;18.13;100.00;92223.28;5014615;28;20103;-76
2023/08/30 03:06:14;;;;;;;11.80;7.40;;;;;;;18.11;100.00;92231.41;5024018;28;20095;-77
2023/08/30 03:08:42;;;;;;;12.48;7.85;;;;;;;18.09;100.00;92228.28;5017437;28;20136;-77
2023/08/30 03:11:09;;;;;;;11.70;7.82;;;;;;;18.05;100.00;92216.88;5010284;28;20045;-77
2023/08/30 03:13:37;;;;;;;11.15;7.38;;;;;;;18.06;100.00;92217.66;5010249;28;20495;-77
2023/08/30 03:16:11;;;;;;;9.10;7.07;;;;;;;18.02;100.00;92204.47;5017545;28;20049;-77
2023/08/30 03:18:37;;;;;;;9.05;7.72;;;;;;;17.99;100.00;92207.59;5011820;28;20053;-77
2023/08/30 03:21:04;;;;;;;12.93;7.72;;;;;;;17.97;100.00;92209.72;5014221;28;20053;-76
2023/08/30 03:23:31;;;;;;;10.40;6.90;;;;;;;18.00;100.00;92209.13;5026178;28;20045;-77
2023/08/30 03:26:00;;;;;;;10.77;7.18;;;;;;;17.87;100.00;92185.41;5010774;28;20454;-77
2023/08/30 03:28:27;;;;;;;14.75;7.22;;;;;;;18.02;100.00;92210.41;5009894;28;20050;-76
2023/08/30 03:30:54;;;;;;;10.93;7.00;;;;;;;17.96;100.00;92188.16;5011210;28;20059;-76
2023/08/30 03:33:20;;;;;;;10.20;7.65;;;;;;;17.91;100.00;92190.81;5016027;28;20041;-76
2023/08/30 03:35:47;;;;;;;9.23;7.43;;;;;;;17.87;100.00;92188.00;5019652;28;20053;-76
2023/08/30 03:38:14;;;;;;;12.10;7.90;;;;;;;17.86;100.00;92188.28;5011342;28;20046;-76
2023/08/30 03:40:41;;;;;;;12.00;8.15;;;;;;;17.82;100.00;92185.47;5011260;28;20045;-76
2023/08/30 03:43:09;;;;;;;8.60;7.35;;;;;;;17.79;100.00;92185.25;5019437;28;20092;-77
2023/08/30 03:45:36;;;;;;;9.82;7.55;;;;;;;17.80;100.00;92194.59;5010383;28;20108;-76
2023/08/30 03:48:04;;;;;;;12.55;8.23;;;;;;;17.79;100.00;92209.41;5020183;28;20046;-76
2023/08/30 03:50:30;;;;;;;13.40;8.80;;;;;;;17.77;100.00;92196.72;5017794;28;20506;-76
2023/08/30 03:52:57;;;;;;;9.73;7.05;;;;;;;17.74;100.00;92202.44;5020345;28;20046;-76
2023/08/30 03:55:24;;;;;;;13.85;8.07;;;;;;;17.83;100.00;92220.03;5014338;28;20329;-77
2023/08/30 03:57:50;;;;;;;12.93;7.88;;;;;;;17.80;100.00;92217.97;5017324;28;20492;-77
2023/08/30 04:00:18;;;;;;;11.10;7.57;;;;;;;17.89;100.00;92222.28;5011171;28;20045;-77
2023/08/30 04:02:45;;;;;;;13.18;7.72;;;;;;;17.98;100.00;92221.66;5009697;28;20092;-78
2023/08/30 04:05:12;;;;;;;8.32;6.47;;;;;;;18.05;100.00;92235.06;5015161;28;20053;-78
2023/08/30 04:07:39;;;;;;;8.88;6.47;;;;;;;18.12;100.00;92248.53;5019327;28;20558;-77
2023/08/30 04:10:07;;;;;;;13.00;6.78;;;;;;;18.19;100.00;92263.75;5020747;28;20462;-78
2023/08/30 04:12:34;;;;;;;12.52;7.05;;;;;;;18.19;100.00;92279.34;5009379;28;20053;-78
2023/08/30 04:15:01;;;;;;;9.70;6.70;;;;;;;17.96;100.00;92286.13;5010339;28;20136;-77
2023/08/30 04:17:29;;;;;;;12.02;6.82;;;;;;;17.69;100.00;92280.41;5008963;28;20096;-78
2023/08/30 04:19:56;;;;;;;10.07;6.63;;;;;;;17.63;100.00;92269.31;5013584;28;20096;-77
2023/08/30 04:22:23;;;;;;;10.25;7.28;;;;;;;17.62;100.00;92259.22;5009567;28;20091;-78
2023/08/30 04:24:50;;;;;;;11.80;7.35;;;;;;;17.65;100.00;92265.69;5008881;28;20389;-78
2023/08/30 04:27:17;;;;;;;11.65;6.53;;;;;;;17.77;100.00;92279.81;5010698;28;20037;-78
2023/08/30 04:29:45;;;;;;;10.45;6.72;;;;;;;17.94;100.00;92325.38;5009655;28;20495;-78
2023/08/30 04:32:11;;;;;;;9.82;6.63;;;;;;;18.01;100.00;92356.97;5009116;28;20055;-79
2023/08/30 04:34:39;;;;;;;9.43;6.85;;;;;;;17.63;100.00;92302.31;5008907;28;20050;-83
2023/08/30 04:37:06;;;;;;;10.27;6.18;;;;;;;18.04;100.00;92327.06;5010079;28;20056;-85
2023/08/30 04:39:33;;;;;;;16.80;6.13;;;;;;;17.17;100.00;92257.56;5009088;28;20053;-84
2023/08/30 04:42:00;;;;;;;15.25;5.88;;;;;;;17.13;100.00;92266.19;5019847;28;20045;-84
2023/08/30 04:44:27;;;;;;;14.40;7.25;;;;;;;17.38;100.00;92295.53;5010644;28;20511;-81
2023/08/30 04:46:57;;;;;;;12.15;6.65;;;;;;;17.39;100.00;92299.72;5018082;28;20058;-81
2023/08/30 04:49:25;;;;;;;10.05;7.20;;;;;;;16.85;100.00;92287.38;5014737;28;20437;-79
2023/08/30 04:51:53;;;;;;;12.15;6.97;;;;;;;16.23;100.00;92295.53;5011502;28;20140;-78
2023/08/30 04:54:19;;;;;;;11.93;6.97;;;;;;;16.22;100.00;92281.03;5008567;28;20068;-80
2023/08/30 04:56:46;;;;;;;11.80;7.40;;;;;;;16.33;100.00;92272.19;5013341;28;20632;-81
2023/08/30 04:59:13;;;;;;;11.10;7.20;;;;;;;16.82;100.00;92304.25;5010053;28;20099;-80
2023/08/30 05:01:42;;;;;;;11.82;7.55;;;;;;;17.02;100.00;92301.78;5012888;28;20054;-77
2023/08/30 05:04:08;;;;;;;12.35;7.95;;;;;;;17.14;100.00;92311.84;5015893;28;20136;-81
2023/08/30 05:06:35;;;;;;;10.70;7.07;;;;;;;17.31;100.00;92306.25;5009278;28;20050;-82
2023/08/30 05:09:03;;;;;;;13.13;7.43;;;;;;;17.44;100.00;92291.84;5009710;28;20096;-81
2023/08/30 05:11:30;;;;;;;12.55;7.85;;;;;;;17.52;100.00;92306.06;5008721;28;20046;-82
2023/08/30 05:13:58;;;;;;;11.88;7.10;;;;;;;17.69;100.00;92306.38;5012146;28;20103;-82
2023/08/30 05:16:24;;;;;;;10.30;6.82;;;;;;;17.76;100.00;92296.47;5018174;28;20056;-82
2023/08/30 05:18:51;;;;;;;12.27;6.93;;;;;;;17.72;100.00;92294.69;5012800;28;20511;-82
2023/08/30 05:21:18;;;;;;;9.82;7.30;;;;;;;17.68;100.00;92296.31;5011003;28;20128;-81
2023/08/30 05:23:44;;;;;;;11.27;7.03;;;;;;;17.79;100.00;92292.53;5010345;28;20112;-83
2023/08/30 05:26:13;;;;;;;10.35;7.40;;;;;;;17.98;100.00;92299.59;5013593;28;20907;-82
2023/08/30 05:28:40;;;;;;;14.82;7.82;;;;;;;18.00;100.00;92282.69;5011901;28;20082;-82
2023/08/30 05:31:07;;;;;;;10.60;6.65;;;;;;;18.14;100.00;92288.00;5008310;28;20053;-83
2023/08/30 05:33:33;;;;;;;12.43;7.13;;;;;;;18.38;100.00;92284.56;5008883;28;20042;-83
2023/08/30 05:36:00;;;;;;;10.40;7.18;;;;;;;18.56;100.00;92287.44;5014247;28;20511;-83
2023/08/30 05:38:27;;;;;;;9.35;6.50;;;;;;;18.59;100.00;92273.09;5009383;28;20050;-84
2023/08/30 05:40:53;;;;;;;9.43;6.30;;;;;;;18.87;100.00;92291.41;5020581;28;20499;-83
2023/08/30 05:43:21;;;;;;;9.65;6.18;;;;;;;18.96;100.00;92290.50;5014264;28;20045;-85
2023/08/30 05:45:48;;;;;;;12.70;6.72;;;;;;;19.00;100.00;92289.94;5011305;28;20124;-84
2023/08/30 05:48:15;;;;;;;10.02;6.45;;;;;;;19.22;100.00;92297.16;5007846;28;20050;-84
2023/08/30 05:50:42;;;;;;;13.27;6.15;;;;;;;19.22;100.00;92297.16;5007766;28;20046;-83
2023/08/30 05:53:09;;;;;;;14.30;6.63;;;;;;;19.30;100.00;92296.50;5009202;28;20400;-83
2023/08/30 05:55:36;;;;;;;10.50;6.75;;;;;;;19.28;100.00;92292.63;5007953;28;20053;-81
2023/08/30 05:58:04;;;;;;;11.73;7.63;;;;;;;19.30;100.00;92299.09;5009250;28;20503;-82
2023/08/30 06:00:32;;;;;;;14.30;9.13;;;;;;;19.37;100.00;92296.13;5008265;28;20592;-82
2023/08/30 06:02:58;;;;;;;13.68;8.90;;;;;;;19.41;100.00;92298.94;5009134;28;20574;-82
2023/08/30 06:05:25;;;;;;;15.27;8.85;;;;;;;19.50;100.00;92290.16;5010885;28;20091;-82
2023/08/30 06:07:52;;;;;;;11.25;7.85;;;;;;;19.60;100.00;92304.06;5008330;28;20053;-82
2023/08/30 06:10:19;;;;;;;10.40;6.90;;;;;;;19.65;100.00;92316.22;5011528;28;20042;-83
2023/08/30 06:12:46;;;;;;;12.40;6.53;;;;;;;19.66;100.00;92296.94;5020104;28;20046;-82
2023/08/30 06:15:12;;;;;;;11.65;6.90;;;;;;;19.68;100.00;92311.22;5008702;28;20054;-82
2023/08/30 06:17:40;;;;;;;11.43;6.43;;;;;;;19.69;100.00;92304.19;5009203;28;20731;-81
2023/08/30 06:20:08;;;;;;;9.98;5.82;;;;;;;19.74;100.00;92301.47;5015544;28;20495;-81
2023/08/30 06:22:35;;;;;;;8.85;6.18;;;;;;;19.89;100.00;92306.41;5028085;28;20096;-81
2023/08/30 06:25:04;;;;;;;10.98;6.38;;;;;;;19.95;100.00;92309.69;5015635;28;20593;-81
2023/08/30 06:27:30;;;;;;;10.20;6.13;;;;;;;19.99;100.00;92317.72;5012868;28;20056;-81
2023/08/30 06:29:57;;;;;;;9.15;5.90;;;;;;;20.02;100.00;92304.09;5015905;28;20952;-81
2023/08/30 06:32:24;;;;;;;7.65;6.05;;;;;;;20.20;100.00;92312.09;5012900;28;20057;-82
2023/08/30 06:34:52;;;;;;;8.88;5.70;;;;;;;20.32;100.00;92311.63;5011509;28;20404;-82
2023/08/30 06:37:19;;;;;;;9.93;5.93;;;;;;;20.42;100.00;92316.63;5012743;28;20061;-83
2023/08/30 06:39:45;;;;;;;11.93;6.75;;;;;;;20.48;100.00;92320.66;5010798;28;20646;-83
2023/08/30 06:42:12;;;;;;;10.05;5.90;;;;;;;20.59;100.00;92316.00;5015290;28;20045;-83
2023/08/30 06:44:40;;;;;;;9.73;5.82;;;;;;;20.75;100.00;92308.63;5018329;28;20495;-83
2023/08/30 06:47:07;;;;;;;9.27;5.55;;;;;;;20.95;100.00;92311.84;5014370;28;20096;-83
2023/08/30 06:49:33;;;;;;;7.22;5.63;;;;;;;21.01;100.00;92289.03;5019352;28;20045;-82
2023/08/30 06:52:03;;;;;;;9.60;5.50;;;;;;;21.36;100.00;92307.50;5014248;28;20046;-83
2023/08/30 06:54:32;;;;;;;11.55;5.13;;;;;;;21.42;100.00;92314.13;5015923;28;20065;-83
2023/08/30 06:56:59;;;;;;;7.15;5.10;;;;;;;21.46;100.00;92307.25;5012802;28;20085;-83
2023/08/30 06:59:26;;;;;;;7.75;5.15;;;;;;;21.67;100.00;92309.34;5013571;28;20136;-84
2023/08/30 07:01:53;;;;;;;8.05;4.55;;;;;;;21.56;100.00;92284.56;5012886;28;20156;-84
2023/08/30 07:04:20;;;;;;;9.07;5.05;;;;;;;21.86;100.00;92314.34;5017212;28;20045;-83
2023/08/30 07:06:49;;;;;;;6.30;4.32;;;;;;;21.60;100.00;92288.09;5014530;28;20049;-84
2023/08/30 07:09:17;;;;;;;6.90;4.68;;;;;;;21.48;100.00;92299.13;5012160;28;20061;-83
2023/08/30 07:11:45;;;;;;;9.50;6.25;;;;;;;21.47;100.00;92328.91;5015672;28;20165;-84
2023/08/30 07:14:12;;;;;;;12.00;5.85;;;;;;;21.66;100.00;92317.50;5012890;28;20142;-84
2023/08/30 07:16:38;;;;;;;10.10;5.50;;;;;;;21.71;100.00;92318.16;5013371;28;20136;-84
2023/08/30 07:19:05;;;;;;;9.52;5.40;;;;;;;21.74;100.00;92325.41;5010209;28;20111;-85
2023/08/30 07:21:32;;;;;;;9.23;5.55;;;;;;;21.85;100.00;92315.44;5012487;28;20046;-84
2023/08/30 07:23:59;;;;;;;12.02;5.50;;;;;;;22.07;100.00;92313.06;5011976;28;20053;-85
2023/08/30 07:26:27;;;;;;;10.88;4.75;;;;;;;22.14;98.65;92306.28;5012256;28;20632;-87
2023/08/30 07:28:54;;;;;;;8.30;4.47;;;;;;;22.32;96.09;92324.66;5016357;28;20454;-87
2023/08/30 07:31:21;;;;;;;8.85;4.30;;;;;;;22.11;95.88;92296.44;5013660;28;20053;-87
2023/08/30 07:33:48;;;;;;;9.77;4.50;;;;;;;21.75;91.66;92230.22;5011766;28;20443;-87
2023/08/30 07:36:15;;;;;;;8.85;4.15;;;;;;;22.32;94.84;92271.56;5013025;28;20045;-86
2023/08/30 07:38:41;;;;;;;9.30;3.83;;;;;;;22.95;92.34;92324.41;5012012;28;20054;-86
2023/08/30 07:41:08;;;;;;;7.03;3.75;;;;;;;23.08;89.68;92324.56;5011904;28;20061;-86
2023/08/30 07:43:36;;;;;;;4.78;2.67;;;;;;;23.03;80.58;92324.72;5010179;28;20084;-86
2023/08/30 07:46:03;;;;;;;6.00;3.13;;;;;;;23.03;86.42;92269.72;5012173;28;20680;-86
2023/08/30 07:48:29;;;;;;;6.57;2.65;;;;;;;23.51;79.52;92293.38;5013545;28;20104;-86
2023/08/30 07:50:56;;;;;;;5.28;2.72;;;;;;;23.98;79.81;92322.19;5013794;28;20053;-87
2023/08/30 07:53:23;;;;;;;5.05;2.78;;;;;;;23.57;76.28;92307.88;5010198;28;20439;-87
2023/08/30 07:55:50;;;;;;;6.55;2.83;;;;;;;23.71;78.34;92282.22;5012082;28;20054;-87
2023/08/30 07:58:18;;;;;;;6.43;3.17;;;;;;;23.57;76.95;92271.94;5011484;28;20046;-88
2023/08/30 08:00:46;;;;;;;6.40;2.90;;;;;;;24.13;77.55;92323.56;5011101;28;20053;-88
2023/08/30 08:03:13;;;;;;;5.32;2.60;;;;;;;23.59;74.35;92295.97;5011766;28;20049;-86
2023/08/30 08:05:41;;;;;;;5.18;2.58;;;;;;;23.52;73.51;92297.53;5012960;28;20538;-87
2023/08/30 08:08:10;;;;;;;4.72;2.13;;;;;;;23.55;70.42;92339.63;5014369;28;20045;-86
2023/08/30 08:10:37;;;;;;;6.18;2.58;;;;;;;23.14;74.45;92296.38;5013093;28;20054;-86
2023/08/30 08:13:04;;;;;;;5.55;2.58;;;;;;;23.66;72.32;92340.06;5011682;28;20108;-88
2023/08/30 08:15:32;;;;;;;6.90;2.97;;;;;;;23.86;74.98;92340.47;5009251;28;20054;-87
2023/08/30 08:18:00;;;;;;;5.00;2.47;;;;;;;24.21;76.59;92342.19;5010628;28;20085;-87
2023/08/30 08:20:27;;;;;;;5.82;2.88;;;;;;;24.14;69.29;92304.13;5011170;28;20119;-86
2023/08/30 08:22:56;;;;;;;5.03;2.60;;;;;;;24.49;69.07;92313.63;5009257;28;20050;-86
2023/08/30 08:25:23;;;;;;;6.28;2.78;;;;;;;25.20;74.65;92348.06;5010772;28;20864;-87
2023/08/30 08:27:50;;;;;;;7.20;3.35;;;;;;;25.10;74.57;92280.13;5013105;28;20577;-86
2023/08/30 08:30:17;;;;;;;6.60;3.38;;;;;;;25.73;72.82;92313.38;5011038;28;20050;-86
2023/08/30 08:32:50;;;;;;;6.95;3.08;;;;;;;25.89;64.67;92354.81;5010680;28;20268;-86
2023/08/30 08:35:20;;;;;;;7.07;3.03;;;;;;;26.18;69.85;92355.72;5011826;28;20120;-86
2023/08/30 08:37:47;;;;;;;4.65;3.13;;;;;;;26.45;65.85;92342.25;5012108;28;20113;-86
2023/08/30 08:40:13;;;;;;;6.68;3.40;;;;;;;26.26;66.37;92352.25;5010104;28;21313;-87
2023/08/30 08:42:42;;;;;;;7.65;3.08;;;;;;;26.38;66.47;92340.94;5008694;28;20636;-86
2023/08/30 08:45:20;;;;;;;8.02;2.60;;;;;;;25.99;65.23;92267.56;5009108;28;20034;-87
2023/08/30 08:47:48;;;;;;;6.55;3.05;;;;;;;26.86;68.04;92340.44;5008976;28;20065;-87
2023/08/30 08:50:17;;;;;;;8.55;3.20;;;;;;;27.25;67.34;92337.34;5009271;28;20053;-85
2023/08/30 08:52:46;;;;;;;5.32;2.60;;;;;;;27.48;64.60;92334.16;5010554;28;20056;-86
2023/08/30 08:55:13;;;;;;;7.03;3.08;;;;;;;27.54;62.63;92337.34;5011752;28;20056;-86
2023/08/30 08:57:41;;;;;;;8.35;3.15;;;;;;;27.64;65.66;92323.69;5012948;28;20045;-85
2023/08/30 09:00:09;;;;;;;6.60;2.50;;;;;;;27.70;59.92;92343.44;5011203;28;20068;-86
2023/08/30 09:02:36;;;;;;;5.45;2.75;;;;;;;27.76;62.89;92335.28;5009174;28;20100;-85
2023/08/30 09:05:04;;;;;;;8.20;3.10;;;;;;;27.11;61.92;92315.91;5010513;28;20748;-84
2023/08/30 09:07:32;;;;;;;5.47;2.85;;;;;;;26.78;62.07;92325.50;5012933;28;20496;-85
2023/08/30 09:10:03;;;;;;;6.68;2.78;;;;;;;26.99;59.22;92322.75;5008505;28;20093;-86
2023/08/30 09:12:33;;;;;;;9.13;3.42;;;;;;;27.14;64.54;92313.34;5009010;28;20050;-87
2023/08/30 09:15:00;;;;;;;5.53;3.05;;;;;;;27.47;62.29;92330.00;5013452;28;20527;-85
2023/08/30 09:17:36;;;;;;;5.43;3.30;;;;;;;27.73;63.70;92326.16;5013562;28;20046;-84
2023/08/30 09:20:08;;;;;;;5.70;3.58;;;;;;;27.94;60.26;92335.69;5009036;28;20060;-83
2023/08/30 09:22:39;;;;;;;7.30;3.33;;;;;;;28.05;61.05;92315.59;5008994;28;20045;-85
2023/08/30 09:25:09;;;;;;;4.68;3.00;;;;;;;28.32;61.07;92330.94;5009603;28;20132;-85
2023/08/30 09:27:38;;;;;;;6.75;2.95;;;;;;;28.49;59.99;92333.19;5008600;28;20045;-84
2023/08/30 09:30:07;;;;;;;7.78;3.10;;;;;;;28.57;58.67;92330.69;5009006;28;20890;-85
2023/08/30 09:32:39;;;;;;;7.10;3.05;;;;;;;28.79;58.49;92324.00;5010520;28;20046;-83
2023/08/30 09:35:07;;;;;;;8.73;3.97;;;;;;;28.87;54.56;92335.53;5009260;28;20053;-84
2023/08/30 09:37:34;;;;;;;15.10;3.47;;;;;;;29.02;52.76;92334.66;5009736;28;20180;-84
2023/08/30 09:40:01;;;;;;;9.93;3.20;;;;;;;29.02;54.05;92332.03;5009964;28;21079;-84
2023/08/30 09:42:29;;;;;;;12.18;3.15;;;;;;;29.10;53.66;92316.31;5008740;28;20535;-84
2023/08/30 09:44:57;;;;;;;8.50;3.30;;;;;;;29.06;53.17;92324.16;5008677;28;20081;-83
2023/08/30 09:47:26;;;;;;;6.30;3.22;;;;;;;28.90;54.17;92292.53;5010328;28;21021;-84
2023/08/30 09:49:56;;;;;;;18.15;3.78;;;;;;;29.33;54.53;92326.94;5011335;28;20097;-84
2023/08/30 09:52:25;;;;;;;8.45;2.78;;;;;;;29.21;53.17;92304.06;5008691;28;20049;-89
2023/08/30 09:54:52;;;;;;;7.38;2.80;;;;;;;29.18;50.25;92325.91;5013403;28;20400;-84
2023/08/30 09:57:21;;;;;;;6.85;3.10;;;;;;;29.02;53.18;92283.69;5008927;28;20124;-84
2023/08/30 09:59:50;;;;;;;6.43;2.83;;;;;;;29.60;54.87;92319.13;5010396;28;20068;-84
2023/08/30 10:02:18;;;;;;;6.50;3.25;;;;;;;29.56;50.37;92307.72;5009775;28;20095;-84
2023/08/30 10:04:46;;;;;;;11.73;2.80;;;;;;;29.66;52.51;92306.38;5011024;28;20164;-86
2023/08/30 10:07:13;;;;;;;5.72;2.80;;;;;;;29.72;49.36;92299.69;5011516;28;20128;-85
2023/08/30 10:09:40;;;;;;;6.25;3.17;;;;;;;29.87;49.51;92313.91;5007504;28;20585;-85
2023/08/30 10:12:08;;;;;;;5.50;2.50;;;;;;;29.91;49.82;92313.94;5008783;28;20046;-85
2023/08/30 10:14:35;;;;;;;6.72;3.20;;;;;;;29.93;50.03;92314.34;5009847;28;20921;-83
2023/08/30 10:17:08;;;;;;;4.03;2.58;;;;;;;29.95;49.64;92312.88;5010517;28;20401;-83
2023/08/30 10:19:38;;;;;;;6.05;3.10;;;;;;;29.88;49.84;92291.59;5008141;28;20050;-85
2023/08/30 10:22:08;;;;;;;4.95;2.97;;;;;;;29.90;48.33;92307.13;5008965;28;20511;-82
2023/08/30 10:24:40;;;;;;;5.43;2.95;;;;;;;30.16;49.93;92309.06;5008678;28;20055;-84
2023/08/30 10:27:09;;;;;;;5.38;2.60;;;;;;;29.97;47.96;92286.06;5008108;28;20108;-88
2023/08/30 10:29:40;;;;;;;6.40;3.00;;;;;;;30.13;48.28;92307.16;5010926;28;20131;-82
2023/08/30 10:32:09;;;;;;;6.53;3.00;;;;;;;30.10;48.12;92311.28;5010911;28;20422;-81
2023/08/30 10:34:37;;;;;;;6.63;2.80;;;;;;;30.03;46.39;92302.41;5009231;28;20062;-82
2023/08/30 10:37:07;;;;;;;6.13;2.78;;;;;;;29.91;47.03;92295.41;5008627;28;20057;-82
2023/08/30 10:39:36;;;;;;;10.70;3.28;;;;;;;29.87;46.20;92309.38;5009030;28;20474;-86
2023/08/30 10:42:09;;;;;;;5.30;3.33;;;;;;;29.76;47.72;92307.66;5008918;28;20131;-85
2023/08/30 10:44:48;;;;;;;4.65;2.90;;;;;;;29.89;47.83;92293.13;5008816;28;20081;-84
2023/08/30 10:47:21;;;;;;;5.68;2.60;;;;;;;29.77;47.04;92296.75;5009455;28;20108;-83
2023/08/30 10:49:50;;;;;;;5.70;3.00;;;;;;;29.69;46.77;92293.19;5010882;28;20045;-81
2023/08/30 10:52:17;;;;;;;5.10;2.95;;;;;;;29.82;46.83;92296.44;5009596;28;20049;-83
2023/08/30 10:54:43;;;;;;;6.18;2.92;;;;;;;29.72;46.87;92294.38;5015805;28;20503;-80
2023/08/30 10:57:19;;;;;;;5.13;3.70;;;;;;;29.83;46.73;92297.19;5008040;28;20507;-82
2023/08/30 11:00:08;;;;;;;3.58;2.60;;;;;;;29.59;44.80;92275.25;5010916;28;21081;-81
2023/08/30 11:02:37;;;;;;;5.38;2.70;;;;;;;29.73;46.19;92293.25;5008329;28;20092;-83
2023/08/30 11:05:04;;;;;;;7.25;2.85;;;;;;;29.82;45.93;92291.16;5009502;28;20042;-81
2023/08/30 11:07:31;;;;;;;4.65;2.55;;;;;;;29.83;45.21;92291.91;5019377;28;20046;-81
2023/08/30 11:09:59;;;;;;;4.82;3.00;;;;;;;29.91;42.99;92298.06;5022293;28;20108;-79
2023/08/30 11:12:26;;;;;;;4.70;2.92;;;;;;;30.03;43.49;92286.53;5020460;28;20045;-80
2023/08/30 11:14:54;;;;;;;4.93;2.67;;;;;;;30.15;42.86;92286.38;5011955;28;20078;-80
2023/08/30 11:17:21;;;;;;;5.90;2.67;;;;;;;30.31;44.07;92285.44;5017580;28;20077;-81
2023/08/30 11:19:51;;;;;;;4.93;2.60;;;;;;;30.31;42.18;92283.53;5016963;28;20057;-81
2023/08/30 11:22:20;;;;;;;4.57;2.67;;;;;;;30.09;41.06;92277.16;5011097;28;20053;-79
2023/08/30 11:24:49;;;;;;;6.05;2.72;;;;;;;30.23;43.50;92266.03;5009617;28;20053;-79
2023/08/30 11:27:18;;;;;;;5.22;3.03;;;;;;;30.32;41.27;92271.84;5009776;28;20140;-80